Time;durP1;ratioP1;P1;durP2;ratioP2;P2;SDS_P1;SDS_P2;PMS_P1;PMS_P2;Temp;Humidity;BMP_temperature;BMP_pressure;BME280_temperature;BME280_humidity;BME280_pressure;Samples;Min_cycle;Max_cycle;Signal;HPM_P1;HPM_P2
2022/07/28 00:00:12;;;;;;;3.90;2.60;;;;;;;16.68;80.23;96809.17;108390;1268;22683;-85
2022/07/28 00:03:04;;;;;;;3.90;2.30;;;;;;;16.78;80.57;96807.56;108374;1268;22541;-86
2022/07/28 00:05:37;;;;;;;5.50;2.40;;;;;;;16.89;80.55;96810.00;108251;1268;75838;-86
2022/07/28 00:08:11;;;;;;;2.70;2.40;;;;;;;16.97;80.56;96814.64;108389;1267;22667;-86
2022/07/28 00:10:42;;;;;;;4.50;2.90;;;;;;;16.93;80.51;96819.52;108350;1269;22578;-86
2022/07/28 00:13:13;;;;;;;5.00;2.90;;;;;;;16.78;80.43;96824.25;108375;1268;22562;-85
2022/07/28 00:15:44;;;;;;;5.40;2.70;;;;;;;16.70;80.67;96822.34;108199;1268;86280;-86
2022/07/28 00:18:16;;;;;;;5.30;2.70;;;;;;;16.72;81.00;96822.07;108385;1268;22570;-86
2022/07/28 00:20:47;;;;;;;3.40;2.90;;;;;;;16.82;81.03;96823.29;108401;1268;22674;-85
2022/07/28 00:23:18;;;;;;;5.60;3.60;;;;;;;16.80;81.39;96824.05;108377;1268;22540;-85
2022/07/28 00:25:49;;;;;;;5.80;4.30;;;;;;;16.78;81.39;96828.60;108142;1268;95210;-85
2022/07/28 00:28:21;;;;;;;6.10;3.50;;;;;;;16.83;81.27;96838.09;108362;1268;22560;-85
2022/07/28 00:30:54;;;;;;;7.50;3.00;;;;;;;16.87;81.21;96837.90;108392;1268;22663;-85
2022/07/28 00:33:25;;;;;;;4.70;3.10;;;;;;;16.94;80.83;96840.53;108401;1267;22699;-85
2022/07/28 00:35:56;;;;;;;5.30;3.10;;;;;;;17.00;80.30;96842.77;108419;1268;22556;-85
2022/07/28 00:38:28;;;;;;;4.50;3.50;;;;;;;17.03;80.45;96852.42;108380;1267;22526;-85
2022/07/28 00:41:11;;;;;;;4.20;3.30;;;;;;;17.09;80.26;96852.59;108367;1268;25286;-86
2022/07/28 00:43:44;;;;;;;3.90;2.90;;;;;;;17.12;80.13;96852.30;108132;1268;112051;-85
2022/07/28 00:46:17;;;;;;;3.40;2.70;;;;;;;17.16;79.74;96847.92;108363;1268;25371;-86
2022/07/28 00:48:51;;;;;;;4.90;2.70;;;;;;;17.20;79.24;96847.70;108362;1268;24259;-85
2022/07/28 00:51:24;;;;;;;6.40;2.70;;;;;;;17.24;78.12;96845.70;108438;1268;22742;-87
2022/07/28 00:53:58;;;;;;;5.00;3.00;;;;;;;17.25;77.36;96845.83;108174;1268;113451;-86
2022/07/28 00:56:29;;;;;;;4.50;2.40;;;;;;;17.25;76.78;96848.48;108379;1268;22536;-85
2022/07/28 00:59:00;;;;;;;5.90;2.20;;;;;;;17.25;76.19;96851.49;108387;1268;22513;-85
2022/07/28 01:01:31;;;;;;;3.60;2.80;;;;;;;17.27;76.24;96852.35;108347;1268;24289;-85
2022/07/28 01:04:04;;;;;;;5.40;2.50;;;;;;;17.31;76.16;96856.56;108302;1268;31606;-85
2022/07/28 01:06:48;;;;;;;3.70;2.10;;;;;;;17.31;75.67;96853.89;108390;1268;23321;-85
2022/07/28 01:09:32;;;;;;;6.00;2.40;;;;;;;17.34;75.84;96857.34;108380;1268;22542;-85
2022/07/28 01:12:15;;;;;;;5.40;2.10;;;;;;;17.39;75.77;96861.75;108403;1268;22600;-85
2022/07/28 01:14:58;;;;;;;5.10;2.20;;;;;;;17.37;75.12;96864.11;108206;1268;94582;-86
2022/07/28 01:17:38;;;;;;;5.40;2.20;;;;;;;17.39;74.88;96861.74;108375;1268;22552;-85
2022/07/28 01:20:15;;;;;;;4.10;2.70;;;;;;;17.41;74.47;96868.98;108407;1268;26439;-86
2022/07/28 01:23:05;;;;;;;5.00;2.50;;;;;;;17.41;74.58;96871.80;108361;1268;23971;-86
2022/07/28 01:25:55;;;;;;;5.40;2.00;;;;;;;17.28;73.61;96872.65;108200;1268;78783;-86
2022/07/28 01:28:40;;;;;;;4.30;1.70;;;;;;;17.17;72.82;96874.18;108415;1268;22596;-86
2022/07/28 01:31:16;;;;;;;4.60;2.30;;;;;;;17.18;72.86;96870.86;108421;1267;25387;-86
2022/07/28 01:33:52;;;;;;;4.20;2.00;;;;;;;17.19;72.40;96870.60;108242;1268;103665;-86
2022/07/28 01:36:28;;;;;;;3.20;2.30;;;;;;;17.16;72.44;96867.52;108411;1267;22666;-85
2022/07/28 01:39:01;;;;;;;3.40;2.20;;;;;;;17.13;72.29;96869.48;108403;1269;22557;-85
2022/07/28 01:41:35;;;;;;;5.40;2.10;;;;;;;17.11;71.70;96868.70;108393;1268;25917;-84
2022/07/28 01:44:10;;;;;;;4.30;2.30;;;;;;;16.94;70.79;96865.48;108197;1268;119475;-85
2022/07/28 01:46:43;;;;;;;5.70;2.20;;;;;;;16.77;70.36;96865.14;108445;1270;22643;-85
2022/07/28 01:49:17;;;;;;;5.30;2.50;;;;;;;16.67;70.76;96868.09;108476;1268;22593;-85
2022/07/28 01:51:50;;;;;;;5.60;2.20;;;;;;;16.66;70.93;96867.95;108424;1268;22590;-85
2022/07/28 01:54:23;;;;;;;4.50;2.00;;;;;;;16.67;70.98;96866.49;108193;1268;157253;-84
2022/07/28 01:56:56;;;;;;;3.90;2.10;;;;;;;16.69;70.82;96864.60;108571;1267;22725;-86
2022/07/28 01:59:29;;;;;;;6.80;2.20;;;;;;;16.71;70.76;96862.84;108521;1267;22564;-86
2022/07/28 02:02:02;;;;;;;6.60;2.20;;;;;;;16.69;70.32;96859.84;108436;1267;23241;-85
2022/07/28 02:04:37;;;;;;;5.50;2.20;;;;;;;16.59;70.20;96855.23;108381;1268;85329;-85
2022/07/28 02:07:11;;;;;;;5.20;2.30;;;;;;;16.52;70.38;96852.16;108474;1270;24230;-85
2022/07/28 02:09:45;;;;;;;2.50;1.90;;;;;;;16.49;70.82;96846.14;108485;1268;24766;-85
2022/07/28 02:12:20;;;;;;;3.90;2.20;;;;;;;16.56;71.26;96852.64;108457;1267;22552;-86
2022/07/28 02:14:54;;;;;;;4.80;2.00;;;;;;;16.64;71.61;96854.34;108258;1267;145456;-86
2022/07/28 02:17:30;;;;;;;3.60;2.10;;;;;;;16.69;71.65;96853.36;108420;1270;22529;-85
2022/07/28 02:20:05;;;;;;;5.00;2.40;;;;;;;16.77;71.68;96853.27;108453;1268;22576;-86
2022/07/28 02:22:38;;;;;;;5.20;2.10;;;;;;;16.79;70.90;96855.04;108478;1267;23949;-86
2022/07/28 02:25:12;;;;;;;4.30;1.80;;;;;;;16.77;71.29;96855.42;108313;1268;142966;-86
2022/07/28 02:27:50;;;;;;;3.50;2.30;;;;;;;16.80;71.82;96855.79;108507;1268;22581;-86
2022/07/28 02:30:31;;;;;;;3.70;2.30;;;;;;;16.84;71.50;96866.66;108537;1267;22643;-86
2022/07/28 02:33:08;;;;;;;3.20;1.90;;;;;;;16.87;71.56;96869.63;108479;1268;22531;-86
2022/07/28 02:35:45;;;;;;;3.20;1.70;;;;;;;16.89;71.64;96866.61;108294;1267;80487;-86
2022/07/28 02:38:27;;;;;;;3.40;1.80;;;;;;;16.90;71.80;96867.77;108427;1270;23721;-86
2022/07/28 02:41:04;;;;;;;3.80;1.90;;;;;;;16.95;71.69;96867.48;108540;1268;22758;-86
2022/07/28 02:43:38;;;;;;;4.60;1.90;;;;;;;16.98;72.01;96865.61;108347;1268;89544;-85
2022/07/28 02:46:14;;;;;;;3.40;2.20;;;;;;;16.99;72.07;96869.65;108552;1268;22521;-86
2022/07/28 02:48:52;;;;;;;5.60;2.30;;;;;;;16.98;72.08;96869.37;108518;1268;25359;-86
2022/07/28 02:51:27;;;;;;;4.50;2.00;;;;;;;16.92;71.76;96871.41;108462;1268;22522;-86
2022/07/28 02:54:00;;;;;;;3.00;1.80;;;;;;;16.74;71.54;96873.32;108378;1268;72353;-86
2022/07/28 02:56:32;;;;;;;3.30;1.80;;;;;;;16.64;71.63;96869.17;108510;1268;23041;-85
2022/07/28 02:59:05;;;;;;;3.60;1.70;;;;;;;16.67;72.26;96870.51;108529;1268;22624;-86
2022/07/28 03:01:39;;;;;;;4.20;1.90;;;;;;;16.74;72.78;96871.93;108465;1268;23199;-86
2022/07/28 03:04:12;;;;;;;4.50;1.60;;;;;;;16.75;72.81;96875.15;108283;1268;119879;-86
2022/07/28 03:06:46;;;;;;;3.60;2.10;;;;;;;16.57;72.72;96876.92;108455;1268;22528;-86
2022/07/28 03:09:17;;;;;;;4.10;1.90;;;;;;;16.41;72.93;96879.66;108478;1267;22699;-86
2022/07/28 03:11:55;;;;;;;4.80;1.80;;;;;;;16.26;73.41;96888.44;108443;1268;22682;-83
2022/07/28 03:14:26;;;;;;;2.60;1.80;;;;;;;16.13;74.08;96892.42;108304;1268;86316;-85
2022/07/28 03:16:58;;;;;;;4.90;2.10;;;;;;;16.06;74.61;96893.31;108421;1265;25319;-85
2022/07/28 03:19:29;;;;;;;5.10;2.00;;;;;;;16.03;74.96;96892.75;108455;1268;22572;-85
2022/07/28 03:22:01;;;;;;;4.50;2.30;;;;;;;16.04;75.24;96893.60;108445;1268;22574;-86
2022/07/28 03:24:37;;;;;;;5.50;2.40;;;;;;;16.16;75.64;96894.70;108136;1268;114928;-86
2022/07/28 03:27:23;;;;;;;5.70;2.00;;;;;;;16.17;75.87;96902.20;108409;1270;25296;-86
2022/07/28 03:30:02;;;;;;;5.70;1.90;;;;;;;16.07;76.21;96899.58;108451;1268;22541;-85
2022/07/28 03:32:38;;;;;;;2.70;1.90;;;;;;;16.02;76.29;96896.33;108397;1268;22522;-86
2022/07/28 03:35:12;;;;;;;3.70;2.10;;;;;;;16.03;76.72;96897.75;108300;1267;164267;-85
2022/07/28 03:37:50;;;;;;;6.00;2.50;;;;;;;16.03;76.57;96899.29;108458;1268;22564;-85
2022/07/28 03:40:24;;;;;;;4.50;1.90;;;;;;;16.07;76.54;96898.73;108426;1268;22460;-85
2022/07/28 03:42:57;;;;;;;3.60;1.60;;;;;;;16.17;77.12;96902.95;108440;1268;22548;-85
2022/07/28 03:45:29;;;;;;;6.20;1.80;;;;;;;16.18;77.15;96906.91;108240;1268;91495;-84
2022/07/28 03:48:01;;;;;;;4.90;2.10;;;;;;;16.08;77.06;96907.48;108410;1268;22666;-85
2022/07/28 03:50:34;;;;;;;3.90;2.10;;;;;;;16.06;77.41;96911.12;108375;1270;25376;-85
2022/07/28 03:53:10;;;;;;;4.40;1.80;;;;;;;16.12;77.33;96911.94;108472;1267;22560;-85
2022/07/28 03:55:42;;;;;;;4.40;1.90;;;;;;;16.15;77.23;96911.73;108254;1268;98843;-85
2022/07/28 03:58:13;;;;;;;4.20;2.20;;;;;;;16.15;77.00;96915.25;108368;1268;22949;-85
2022/07/28 04:00:45;;;;;;;6.80;2.20;;;;;;;16.21;77.04;96918.91;108455;1268;22574;-85
2022/07/28 04:03:16;;;;;;;3.50;2.40;;;;;;;16.28;76.93;96917.12;108431;1268;22657;-85
2022/07/28 04:05:51;;;;;;;5.30;2.00;;;;;;;16.40;77.06;96919.60;108262;1268;105418;-85
2022/07/28 04:08:23;;;;;;;6.30;2.40;;;;;;;16.48;76.43;96920.35;108378;1268;22721;-85
2022/07/28 04:10:54;;;;;;;3.50;1.80;;;;;;;16.55;76.41;96918.06;108410;1268;22656;-85
2022/07/28 04:13:25;;;;;;;5.40;2.20;;;;;;;16.64;76.52;96920.09;108442;1268;22548;-85
2022/07/28 04:15:59;;;;;;;3.10;2.40;;;;;;;16.72;76.47;96926.69;108367;1270;22560;-85
2022/07/28 04:18:32;;;;;;;5.50;2.40;;;;;;;16.79;76.44;96925.91;108400;1270;24225;-85
2022/07/28 04:21:04;;;;;;;5.00;2.60;;;;;;;16.89;76.42;96929.44;108495;1268;22537;-86
2022/07/28 04:23:38;;;;;;;3.30;2.20;;;;;;;16.90;76.75;96930.70;108289;1268;111970;-85
2022/07/28 04:26:09;;;;;;;4.80;2.40;;;;;;;16.87;76.76;96928.79;108465;1268;22697;-85
2022/07/28 04:28:41;;;;;;;7.00;2.30;;;;;;;16.87;76.61;96930.46;108428;1268;22579;-86
2022/07/28 04:31:12;;;;;;;3.40;2.40;;;;;;;16.83;76.63;96931.85;108381;1269;22634;-85
2022/07/28 04:33:45;;;;;;;5.50;2.70;;;;;;;16.87;77.01;96931.03;108276;1268;80110;-85
2022/07/28 04:36:16;;;;;;;4.70;2.40;;;;;;;16.94;76.89;96928.45;108457;1268;25367;-85
2022/07/28 04:38:48;;;;;;;5.80;2.30;;;;;;;16.97;76.77;96924.52;108472;1268;22680;-85
2022/07/28 04:41:20;;;;;;;5.80;2.70;;;;;;;16.93;76.61;96927.85;108386;1268;22564;-85
2022/07/28 04:43:51;;;;;;;4.10;2.60;;;;;;;16.90;76.53;96926.42;108287;1268;109082;-85
2022/07/28 04:46:23;;;;;;;5.00;2.60;;;;;;;16.92;76.31;96927.00;108458;1268;22526;-85
2022/07/28 04:48:55;;;;;;;6.10;2.60;;;;;;;16.86;76.11;96924.10;108499;1268;22547;-85
2022/07/28 04:51:26;;;;;;;4.90;2.70;;;;;;;16.84;76.52;96926.42;108436;1267;24208;-85
2022/07/28 04:53:59;;;;;;;3.30;2.20;;;;;;;16.84;76.70;96930.42;108265;1268;105861;-85
2022/07/28 04:56:31;;;;;;;3.90;2.10;;;;;;;16.91;76.28;96932.60;108394;1270;22654;-85
2022/07/28 04:59:03;;;;;;;3.40;1.90;;;;;;;16.97;76.09;96939.89;108444;1268;22551;-85
2022/07/28 05:01:37;;;;;;;5.60;2.00;;;;;;;17.05;76.11;96935.85;108397;1268;22523;-85
2022/07/28 05:04:09;;;;;;;3.20;2.00;;;;;;;17.16;75.78;96940.34;108184;1268;104510;-85
2022/07/28 05:06:40;;;;;;;4.50;2.30;;;;;;;17.24;74.90;96941.69;108452;1268;23767;-85
2022/07/28 05:09:12;;;;;;;4.70;2.30;;;;;;;17.27;74.26;96940.61;108402;1268;22617;-84
2022/07/28 05:11:43;;;;;;;3.50;1.70;;;;;;;17.27;73.28;96944.65;108372;1269;22555;-85
2022/07/28 05:14:16;;;;;;;4.70;2.60;;;;;;;17.22;72.85;96944.61;108340;1268;78276;-85
2022/07/28 05:16:47;;;;;;;4.50;2.20;;;;;;;17.10;72.44;96941.59;108435;1268;22526;-84
2022/07/28 05:19:21;;;;;;;5.60;1.70;;;;;;;16.98;72.06;96940.02;108480;1268;22665;-84
2022/07/28 05:21:53;;;;;;;5.20;2.00;;;;;;;16.87;72.31;96941.73;108423;1270;22652;-84
2022/07/28 05:24:26;;;;;;;4.10;1.90;;;;;;;16.78;72.37;96939.71;108252;1268;87559;-84
2022/07/28 05:26:57;;;;;;;4.80;1.90;;;;;;;16.75;72.27;96941.87;108436;1267;22581;-84
2022/07/28 05:29:29;;;;;;;4.30;1.90;;;;;;;16.78;72.31;96942.67;108416;1270;22663;-84
2022/07/28 05:32:01;;;;;;;4.60;2.40;;;;;;;16.83;72.44;96945.45;108486;1270;23231;-84
2022/07/28 05:34:33;;;;;;;2.90;1.80;;;;;;;16.85;72.53;96951.19;108246;1268;82738;-84
2022/07/28 05:37:05;;;;;;;3.30;1.70;;;;;;;16.95;72.89;96953.69;108412;1269;22552;-84
2022/07/28 05:39:38;;;;;;;5.60;2.10;;;;;;;17.15;73.21;96953.94;108422;1268;23906;-84
2022/07/28 05:42:10;;;;;;;4.40;1.70;;;;;;;17.48;73.34;96954.30;108443;1268;24223;-84
2022/07/28 05:44:41;;;;;;;6.10;2.50;;;;;;;17.80;72.82;96959.14;108327;1269;122274;-85
2022/07/28 05:47:14;;;;;;;5.20;1.60;;;;;;;18.08;71.81;96965.40;108423;1268;22535;-86
2022/07/28 05:49:47;;;;;;;4.20;1.60;;;;;;;18.30;70.67;96965.06;108409;1268;25243;-83
2022/07/28 05:52:18;;;;;;;3.40;2.00;;;;;;;18.81;70.69;96966.50;108378;1268;23900;-81
2022/07/28 05:54:50;;;;;;;5.60;1.80;;;;;;;19.42;69.52;96965.43;108112;1268;168868;-80
2022/07/28 05:57:21;;;;;;;2.90;1.70;;;;;;;20.34;68.30;96967.13;108383;1268;22524;-78
2022/07/28 05:59:52;;;;;;;2.50;1.60;;;;;;;20.68;66.05;96964.15;108345;1269;22816;-79
2022/07/28 06:02:23;;;;;;;3.10;1.60;;;;;;;20.48;63.98;96968.46;108346;1270;22539;-78
2022/07/28 06:04:54;;;;;;;3.50;1.70;;;;;;;20.38;63.89;96971.70;108243;1270;39305;-78
2022/07/28 06:07:25;;;;;;;4.80;2.00;;;;;;;20.16;62.88;96976.23;108405;1270;23965;-78
2022/07/28 06:09:57;;;;;;;4.90;2.30;;;;;;;19.57;61.97;96978.84;108423;1268;22554;-78
2022/07/28 06:12:28;;;;;;;5.90;2.20;;;;;;;18.88;62.17;96980.67;108405;1268;22553;-79
2022/07/28 06:15:02;;;;;;;7.10;2.50;;;;;;;18.52;62.77;96984.85;108342;1268;28919;-78
2022/07/28 06:17:34;;;;;;;4.60;2.20;;;;;;;18.44;63.76;96987.91;108428;1270;22541;-79
2022/07/28 06:20:10;;;;;;;4.90;2.50;;;;;;;18.34;63.76;96989.56;108400;1268;22873;-78
2022/07/28 06:22:46;;;;;;;6.20;2.70;;;;;;;18.22;63.43;96992.45;108462;1268;24401;-79
2022/07/28 06:25:21;;;;;;;6.00;2.20;;;;;;;18.16;63.57;96991.52;108397;1268;26122;-79
2022/07/28 06:27:58;;;;;;;4.80;1.90;;;;;;;18.18;64.00;96989.14;108432;1270;22823;-79
2022/07/28 06:30:39;;;;;;;4.30;1.90;;;;;;;18.27;64.28;96990.29;108514;1268;25229;-77
2022/07/28 06:33:14;;;;;;;4.90;2.00;;;;;;;18.38;63.87;96990.09;108567;1268;22553;-77
2022/07/28 06:35:50;;;;;;;4.50;2.10;;;;;;;18.51;63.86;96986.55;108381;1268;32175;-78
2022/07/28 06:38:26;;;;;;;4.90;2.10;;;;;;;18.67;63.71;96985.33;108420;1270;23212;-79
2022/07/28 06:41:01;;;;;;;4.40;2.10;;;;;;;19.09;64.32;96987.58;108435;1268;22754;-79
2022/07/28 06:43:34;;;;;;;5.80;2.00;;;;;;;19.41;63.41;96987.44;108115;1268;137406;-79
2022/07/28 06:46:10;;;;;;;4.90;2.00;;;;;;;19.71;62.51;96986.67;108381;1269;22560;-80
2022/07/28 06:48:48;;;;;;;5.60;2.10;;;;;;;20.13;62.18;96984.96;108464;1267;22692;-79
2022/07/28 06:51:22;;;;;;;4.60;2.00;;;;;;;21.19;61.88;96983.30;108424;1268;24330;-79
2022/07/28 06:54:01;;;;;;;4.50;1.80;;;;;;;23.65;59.83;96983.14;108252;1268;154069;-80
2022/07/28 06:56:35;;;;;;;5.20;1.90;;;;;;;25.28;52.38;96983.92;108483;1268;25220;-80
2022/07/28 06:59:14;;;;;;;4.10;1.80;;;;;;;24.33;51.48;96985.11;108473;1268;22524;-80
2022/07/28 07:01:47;;;;;;;6.40;2.10;;;;;;;23.81;52.17;96988.00;108463;1268;22663;-81
2022/07/28 07:04:30;;;;;;;3.80;1.80;;;;;;;24.70;50.92;96986.21;108316;1268;84098;-81
2022/07/28 07:07:02;;;;;;;4.40;2.10;;;;;;;26.22;52.22;96982.90;108507;1268;22993;-81
2022/07/28 07:09:38;;;;;;;7.50;2.20;;;;;;;28.91;51.05;96984.80;108419;1270;22633;-81
2022/07/28 07:12:13;;;;;;;5.00;1.90;;;;;;;30.67;47.33;96982.10;107908;1270;123503;-80
2022/07/28 07:14:56;;;;;;;3.80;2.00;;;;;;;31.92;43.09;96984.05;108469;1268;24233;-82
2022/07/28 07:17:36;;;;;;;3.70;2.00;;;;;;;32.08;38.55;96984.96;108465;1268;22559;-82
2022/07/28 07:20:19;;;;;;;5.40;2.10;;;;;;;32.09;38.81;96982.84;108479;1268;22561;-81
2022/07/28 07:23:23;;;;;;;6.90;2.30;;;;;;;32.78;37.09;96985.93;106825;1270;1851518;-81
2022/07/28 07:25:57;;;;;;;5.00;2.30;;;;;;;32.18;34.74;96990.97;108435;1271;24247;-81
2022/07/28 07:28:41;;;;;;;6.00;2.40;;;;;;;31.53;35.24;96987.58;108456;1268;22588;-82
2022/07/28 07:34:00;;;;;;;3.90;2.00;;;;;;;31.65;35.53;96986.67;103927;1268;5591363;-81
2022/07/28 07:36:35;;;;;;;2.50;1.90;;;;;;;32.04;35.08;96985.48;108402;1271;22531;-82
2022/07/28 07:39:11;;;;;;;4.10;2.30;;;;;;;32.35;34.12;96990.30;108479;1268;22703;-80
2022/07/28 07:42:03;;;;;;;4.10;2.30;;;;;;;32.62;34.03;96990.25;105228;1268;5409553;-89
2022/07/28 07:44:40;;;;;;;5.80;2.50;;;;;;;32.50;32.95;96987.20;108181;1271;44882;-88
2022/07/28 07:47:18;;;;;;;3.20;1.70;;;;;;;33.97;33.60;96989.24;108559;1267;22562;-87
2022/07/28 07:49:53;;;;;;;4.90;2.00;;;;;;;34.55;32.49;96986.70;108535;1268;22913;-87
2022/07/28 07:52:26;;;;;;;3.60;1.60;;;;;;;35.24;32.07;96984.37;109076;1268;100634;-87
2022/07/28 07:55:03;;;;;;;5.20;2.00;;;;;;;35.06;29.86;96982.23;108493;1268;22553;-88
2022/07/28 07:57:44;;;;;;;4.80;2.10;;;;;;;34.12;29.77;96984.51;108514;1271;22593;-86
2022/07/28 08:00:20;;;;;;;3.30;1.80;;;;;;;33.15;30.65;96990.23;108429;1268;22665;-87
2022/07/28 08:03:02;;;;;;;4.70;2.20;;;;;;;32.49;32.69;96993.95;108288;1268;97416;-86
2022/07/28 08:05:36;;;;;;;3.50;2.00;;;;;;;34.15;33.63;96991.55;108475;1269;25937;-86
2022/07/28 08:08:13;;;;;;;5.50;2.60;;;;;;;36.01;31.39;96995.55;108473;1268;24262;-86
2022/07/28 08:10:50;;;;;;;3.30;2.60;;;;;;;36.45;29.74;96996.60;108492;1268;22543;-85
2022/07/28 08:13:25;;;;;;;5.20;2.70;;;;;;;36.74;28.53;96994.08;108405;1268;31595;-86
2022/07/28 08:15:59;;;;;;;4.10;2.20;;;;;;;36.43;30.01;96992.64;108359;1271;23715;-86
2022/07/28 08:18:41;;;;;;;3.20;1.90;;;;;;;36.97;28.52;96997.95;108463;1268;22668;-86
2022/07/28 08:21:32;;;;;;;4.60;2.10;;;;;;;37.21;29.84;96997.16;108467;1271;25310;-86
2022/07/28 08:24:14;;;;;;;3.10;2.00;;;;;;;38.47;28.20;96994.22;108456;1268;22529;-86
2022/07/28 08:26:51;;;;;;;2.80;1.60;;;;;;;38.49;27.55;96997.98;108471;1268;23170;-88
2022/07/28 08:29:40;;;;;;;3.90;2.00;;;;;;;37.29;24.97;96995.13;108458;1270;25192;-88
2022/07/28 08:32:21;;;;;;;4.50;2.20;;;;;;;34.99;26.88;96992.21;106714;1268;2179033;-87
2022/07/28 08:34:54;;;;;;;3.00;1.80;;;;;;;34.05;29.18;96990.71;108454;1268;22563;-86
2022/07/28 08:37:31;;;;;;;3.70;2.00;;;;;;;35.16;28.49;96986.38;108351;1271;22703;-87
2022/07/28 08:40:13;;;;;;;3.30;2.20;;;;;;;34.81;27.69;96989.42;108418;1268;23365;-86
2022/07/28 08:42:57;;;;;;;3.70;2.10;;;;;;;34.62;28.98;96993.30;108263;1268;71864;-87
2022/07/28 08:45:38;;;;;;;3.50;2.10;;;;;;;35.44;29.64;96989.95;108395;1271;22548;-86
2022/07/28 08:48:14;;;;;;;4.60;2.30;;;;;;;37.34;29.41;96988.84;108522;1268;22568;-86
2022/07/28 08:50:52;;;;;;;3.90;1.80;;;;;;;37.71;25.72;96985.84;108293;1271;23769;-86
2022/07/28 08:53:25;;;;;;;4.50;2.00;;;;;;;36.43;26.46;96991.52;108378;1268;30490;-85
2022/07/28 08:56:12;;;;;;;3.90;1.90;;;;;;;36.45;28.36;96995.98;108384;1270;23358;-86
2022/07/28 08:58:46;;;;;;;2.80;2.00;;;;;;;38.41;28.39;96988.55;108452;1268;22587;-85
2022/07/28 09:01:19;;;;;;;5.00;1.90;;;;;;;39.75;27.31;96985.95;108486;1267;22514;-83
2022/07/28 09:03:53;;;;;;;5.00;2.10;;;;;;;40.45;26.62;96987.52;108358;1268;39583;-83
2022/07/28 09:06:30;;;;;;;3.70;2.00;;;;;;;40.34;24.87;96985.19;108424;1268;22540;-82
2022/07/28 09:09:04;;;;;;;3.40;1.70;;;;;;;38.17;23.88;96985.80;108475;1268;22539;-81
2022/07/28 09:11:39;;;;;;;7.80;2.00;;;;;;;36.03;26.34;96982.88;108479;1267;24252;-82
2022/07/28 09:14:15;;;;;;;3.70;1.80;;;;;;;35.93;27.60;96980.27;108469;1268;22473;-85
2022/07/28 09:17:02;;;;;;;5.00;2.00;;;;;;;35.75;28.49;96981.68;108459;1268;25245;-82
2022/07/28 09:19:36;;;;;;;4.80;1.80;;;;;;;34.67;28.85;96980.59;108451;1268;22542;-81
2022/07/28 09:22:15;;;;;;;3.20;1.90;;;;;;;32.37;30.02;96982.40;108281;1268;108835;-81
2022/07/28 09:24:48;;;;;;;4.40;2.20;;;;;;;30.30;31.54;96984.73;108381;1270;24148;-80
2022/07/28 09:27:44;;;;;;;4.60;2.10;;;;;;;28.09;34.89;96983.78;108427;1268;22714;-82
2022/07/28 09:30:48;;;;;;;3.50;2.00;;;;;;;27.33;37.26;96984.04;108526;1268;23253;-82
2022/07/28 09:33:25;;;;;;;4.90;2.00;;;;;;;27.66;38.82;96984.58;106998;1268;1507677;-80
2022/07/28 09:36:03;;;;;;;4.20;1.90;;;;;;;28.09;38.67;96984.18;108515;1268;24347;-83
2022/07/28 09:38:44;;;;;;;5.60;2.00;;;;;;;27.94;37.60;96985.67;108483;1268;22548;-82
2022/07/28 09:41:26;;;;;;;4.20;2.30;;;;;;;27.19;38.63;96983.86;108444;1268;24299;-81
2022/07/28 09:44:05;;;;;;;4.00;2.40;;;;;;;27.12;40.03;96982.95;108392;1268;35462;-81
2022/07/28 09:46:40;;;;;;;4.30;2.20;;;;;;;27.30;39.61;96987.21;108561;1268;22724;-81
2022/07/28 09:49:17;;;;;;;4.00;2.00;;;;;;;27.40;39.86;96985.04;108480;1268;22536;-81
2022/07/28 09:52:09;;;;;;;2.90;2.40;;;;;;;27.12;40.06;96984.51;108390;1268;55217;-81
2022/07/28 09:55:05;;;;;;;4.80;2.80;;;;;;;26.65;41.04;96977.48;108409;1268;22558;-80
2022/07/28 09:57:39;;;;;;;5.90;3.00;;;;;;;26.86;41.07;96973.23;108417;1269;25829;-81
2022/07/28 10:00:37;;;;;;;5.20;2.70;;;;;;;27.02;41.12;96972.60;108521;1268;24314;-81
2022/07/28 10:03:11;;;;;;;5.20;2.40;;;;;;;27.31;41.95;96977.42;107844;1268;83281;-80
2022/07/28 10:05:48;;;;;;;5.40;2.40;;;;;;;27.53;41.80;96978.19;108531;1268;22744;-82
2022/07/28 10:08:38;;;;;;;4.70;2.10;;;;;;;27.68;41.78;96976.98;108486;1270;22545;-81
2022/07/28 10:11:13;;;;;;;4.40;2.20;;;;;;;28.02;41.06;96980.81;108469;1268;25926;-80
2022/07/28 10:14:07;;;;;;;6.50;2.40;;;;;;;28.05;40.76;96976.62;108431;1268;31194;-80
2022/07/28 10:16:51;;;;;;;6.50;2.20;;;;;;;28.05;40.46;96972.25;108486;1268;22535;-79
2022/07/28 10:19:36;;;;;;;4.80;2.40;;;;;;;28.03;41.57;96971.32;108498;1268;22586;-80
2022/07/28 10:22:22;;;;;;;6.80;2.70;;;;;;;27.82;40.68;96970.83;108393;1268;33712;-79
2022/07/28 10:24:58;;;;;;;5.70;2.70;;;;;;;27.47;41.45;96968.98;108476;1268;22565;-80
2022/07/28 10:27:35;;;;;;;5.50;2.40;;;;;;;27.69;41.18;96965.92;108493;1268;22532;-79
2022/07/28 10:30:20;;;;;;;3.20;1.90;;;;;;;27.76;40.83;96966.81;108547;1267;24219;-80
2022/07/28 10:33:03;;;;;;;3.00;2.20;;;;;;;27.19;41.20;96966.98;108369;1270;32153;-80
2022/07/28 10:35:38;;;;;;;4.80;2.10;;;;;;;26.59;41.62;96964.27;108407;1271;22549;-80
2022/07/28 10:38:28;;;;;;;4.30;2.20;;;;;;;26.20;42.14;96961.89;108479;1268;24385;-79
2022/07/28 10:41:16;;;;;;;4.00;2.50;;;;;;;26.40;42.97;96961.90;108516;1268;22565;-80
2022/07/28 10:43:57;;;;;;;2.80;2.00;;;;;;;26.49;42.86;96963.71;108215;1268;149013;-80
2022/07/28 10:46:40;;;;;;;4.00;2.20;;;;;;;26.33;43.22;96965.70;108486;1268;22517;-80
2022/07/28 10:49:18;;;;;;;4.40;2.10;;;;;;;25.72;43.68;96958.34;108534;1268;22568;-79
2022/07/28 10:51:53;;;;;;;3.80;2.30;;;;;;;25.69;44.78;96960.71;108296;1268;98790;-80
2022/07/28 10:54:33;;;;;;;2.50;2.00;;;;;;;25.95;45.23;96961.67;108368;1270;22606;-80
2022/07/28 10:57:16;;;;;;;4.50;2.40;;;;;;;26.13;44.46;96963.21;108506;1268;22556;-79
2022/07/28 11:00:09;;;;;;;2.80;2.40;;;;;;;26.00;44.02;96965.08;108554;1267;23137;-80
2022/07/28 11:02:55;;;;;;;3.20;2.30;;;;;;;25.49;44.65;96959.04;108439;1268;31561;-79
2022/07/28 11:05:43;;;;;;;2.50;2.00;;;;;;;25.33;45.65;96957.17;108500;1268;22541;-80
2022/07/28 11:08:33;;;;;;;4.90;2.70;;;;;;;25.88;46.30;96957.09;108490;1268;23664;-79
2022/07/28 11:11:10;;;;;;;3.90;2.30;;;;;;;26.14;44.90;96957.09;108462;1268;22696;-78
2022/07/28 11:13:51;;;;;;;5.80;2.30;;;;;;;26.40;45.99;96953.81;106883;1268;2007028;-78
2022/07/28 11:16:30;;;;;;;4.40;2.40;;;;;;;26.85;45.44;96953.39;108410;1268;24213;-79
2022/07/28 11:19:15;;;;;;;5.20;2.40;;;;;;;27.10;44.98;96951.21;108551;1270;23483;-80
2022/07/28 11:22:27;;;;;;;3.70;2.30;;;;;;;27.24;44.23;96950.94;108318;1268;103479;-79
2022/07/28 11:25:17;;;;;;;5.10;2.30;;;;;;;26.51;43.00;96943.96;108469;1268;22540;-77
2022/07/28 11:28:04;;;;;;;;;;;;;;;25.60;45.24;96941.41;108458;1270;22580;-80
2022/07/28 11:30:58;;;;;;;4.30;2.40;;;;;;;25.62;45.72;96940.82;108640;1268;22664;-80
2022/07/28 11:33:56;;;;;;;5.70;2.70;;;;;;;26.06;46.46;96938.99;108355;1268;35903;-79
2022/07/28 11:37:01;;;;;;;4.60;2.50;;;;;;;26.43;45.56;96938.55;108461;1268;22679;-79
2022/07/28 11:39:35;;;;;;;2.80;2.40;;;;;;;26.31;44.26;96938.88;108519;1268;23222;-78
2022/07/28 11:42:26;;;;;;;7.10;3.00;;;;;;;25.75;44.30;96939.61;108471;1268;26021;-79
2022/07/28 11:45:19;;;;;;;4.90;3.20;;;;;;;25.36;45.09;96937.83;108495;1268;22527;-79
2022/07/28 11:48:11;;;;;;;4.10;2.50;;;;;;;25.55;46.25;96935.85;108489;1268;22573;-81
2022/07/28 11:50:43;;;;;;;5.30;2.80;;;;;;;26.03;46.10;96932.36;108452;1267;25280;-79
2022/07/28 11:53:16;;;;;;;5.30;2.90;;;;;;;25.94;45.35;96933.42;104912;1268;4707965;-80
2022/07/28 11:55:53;;;;;;;3.70;2.70;;;;;;;25.69;45.31;96927.45;108458;1268;22541;-80
2022/07/28 11:58:27;;;;;;;5.00;2.90;;;;;;;25.66;45.35;96929.09;108486;1268;22601;-80
2022/07/28 12:01:15;;;;;;;3.00;2.70;;;;;;;25.27;45.91;96925.06;108480;1268;22568;-81
2022/07/28 12:03:49;;;;;;;2.70;2.20;;;;;;;25.45;46.91;96922.60;108157;1270;141649;-80
2022/07/28 12:06:22;;;;;;;4.50;2.40;;;;;;;25.70;46.55;96918.20;108442;1268;24263;-80
2022/07/28 12:08:55;;;;;;;4.00;2.60;;;;;;;25.68;46.35;96920.76;108445;1268;22549;-80
2022/07/28 12:11:31;;;;;;;3.60;2.60;;;;;;;25.70;46.71;96920.77;108412;1270;22544;-80